createdAt,value
2022-11-25T00:01:25.099Z,100944.78
2022-11-25T00:03:54.548Z,100950.13
2022-11-25T00:06:26.199Z,100952.81
2022-11-25T00:08:57.259Z,100942.97
2022-11-25T00:11:25.289Z,100942.22
2022-11-25T00:13:53.373Z,100941.19
2022-11-25T00:16:23.295Z,100934.94
2022-11-25T00:18:52.849Z,100924.22
2022-11-25T00:21:23.975Z,100922.63
2022-11-25T00:23:53.316Z,100926.31
2022-11-25T00:26:22.450Z,100917.44
2022-11-25T00:28:51.733Z,100919.25
2022-11-25T00:31:23.454Z,100924.69
2022-11-25T00:33:52.340Z,100921.16
2022-11-25T00:36:22.392Z,100911.41
2022-11-25T00:38:56.186Z,100909.69
2022-11-25T00:41:42.587Z,100915.06
2022-11-25T00:44:28.772Z,100907.97
2022-11-25T00:46:56.868Z,100902.63
2022-11-25T00:49:24.811Z,100908.91
2022-11-25T00:51:52.984Z,100916.94
2022-11-25T00:54:22.345Z,100918.88
2022-11-25T00:56:50.738Z,100913.50
2022-11-25T00:59:18.982Z,100910.06
2022-11-25T01:01:49.395Z,100910.91
2022-11-25T01:04:17.666Z,100910.91
2022-11-25T01:06:45.752Z,100911.88
2022-11-25T01:09:14.475Z,100903.00
2022-11-25T01:11:43.853Z,100906.63
2022-11-25T01:14:11.997Z,100904.88
2022-11-25T01:16:40.068Z,100904.88
2022-11-25T01:19:08.132Z,100901.34
2022-11-25T01:21:36.643Z,100907.56
2022-11-25T01:24:06.210Z,100901.44
2022-11-25T01:26:35.657Z,100905.94
2022-11-25T01:29:06.953Z,100906.91
2022-11-25T01:31:36.758Z,100902.41
2022-11-25T01:34:06.872Z,100904.22
2022-11-25T01:36:34.948Z,100907.75
2022-11-25T01:39:03.058Z,100903.25
2022-11-25T01:41:35.262Z,100905.09
2022-11-25T01:44:07.564Z,100899.72
2022-11-25T01:46:47.137Z,100896.19
2022-11-25T01:49:19.009Z,100897.06
2022-11-25T01:51:53.538Z,100908.63
2022-11-25T01:54:25.417Z,100911.28
2022-11-25T01:56:58.568Z,100905.13
2022-11-25T01:59:30.252Z,100900.66
2022-11-25T02:01:59.758Z,100902.56
2022-11-25T02:04:34.929Z,100898.06
2022-11-25T02:07:08.512Z,100900.72
2022-11-25T02:09:40.188Z,100905.22
2022-11-25T02:12:08.814Z,100895.38
2022-11-25T02:14:38.385Z,100902.63
2022-11-25T02:17:06.604Z,100901.69
2022-11-25T02:19:49.415Z,100898.16
2022-11-25T02:22:27.018Z,100903.50
2022-11-25T02:25:01.299Z,100912.41
2022-11-25T02:27:30.669Z,100912.28
2022-11-25T02:29:58.656Z,100898.91
2022-11-25T02:32:26.627Z,100906.94
2022-11-25T02:34:54.652Z,100912.28
2022-11-25T02:37:24.503Z,100910.47
2022-11-25T02:39:54.525Z,100913.16
2022-11-25T02:42:24.066Z,100912.28
2022-11-25T02:44:56.838Z,100917.63
2022-11-25T02:47:24.985Z,100919.38
2022-11-25T02:49:52.960Z,100923.00
2022-11-25T02:52:20.988Z,100926.53
2022-11-25T02:54:49.404Z,100929.19
2022-11-25T02:57:17.334Z,100929.19
2022-11-25T02:59:45.325Z,100928.34
2022-11-25T03:02:14.681Z,100931.00
2022-11-25T03:04:42.727Z,100944.38
2022-11-25T03:07:10.682Z,100944.38
2022-11-25T03:09:38.677Z,100948.88
2022-11-25T03:12:21.986Z,100948.88
2022-11-25T03:14:49.905Z,100946.22
2022-11-25T03:17:19.223Z,100933.78
2022-11-25T03:19:47.208Z,100934.66
2022-11-25T03:22:15.286Z,100931.97
2022-11-25T03:24:43.409Z,100933.88
2022-11-25T03:27:11.393Z,100947.16
2022-11-25T03:29:39.346Z,100944.50
2022-11-25T03:32:10.019Z,100960.53
2022-11-25T03:34:39.470Z,100951.66
2022-11-25T03:37:07.580Z,100959.69
2022-11-25T03:39:35.556Z,100955.19
2022-11-25T03:42:03.572Z,100951.66
2022-11-25T03:44:31.527Z,100942.75
2022-11-25T03:46:59.504Z,100937.50
2022-11-25T03:49:27.576Z,100922.41
2022-11-25T03:51:57.048Z,100912.56
2022-11-25T03:54:25.130Z,100926.78
2022-11-25T03:56:53.222Z,100942.94
2022-11-25T03:59:21.114Z,100944.75
2022-11-25T04:01:49.119Z,100951.84
2022-11-25T04:04:17.091Z,100943.03
2022-11-25T04:06:45.031Z,100941.19
2022-11-25T04:09:14.729Z,100935.00
2022-11-25T04:12:00.641Z,100939.59
2022-11-25T04:14:28.619Z,100941.31
2022-11-25T04:16:56.646Z,100945.78
2022-11-25T04:19:24.863Z,100955.63
2022-11-25T04:21:53.114Z,100953.81
2022-11-25T04:24:22.907Z,100955.72
2022-11-25T04:26:51.146Z,100966.34
2022-11-25T04:29:19.115Z,100974.38
2022-11-25T04:31:47.263Z,100974.38
2022-11-25T04:34:15.269Z,100982.38
2022-11-25T04:36:43.194Z,100996.72
2022-11-25T04:39:16.657Z,100999.38
2022-11-25T04:41:46.046Z,101002.06
2022-11-25T04:44:13.979Z,100994.97
2022-11-25T04:46:44.540Z,100995.94
2022-11-25T04:49:12.846Z,100999.47
2022-11-25T04:51:40.799Z,101005.75
2022-11-25T04:54:11.180Z,101010.16
2022-11-25T04:56:41.322Z,101020.00
2022-11-25T04:59:28.410Z,101019.13
2022-11-25T05:01:56.361Z,101018.28
2022-11-25T05:04:24.307Z,101040.59
2022-11-25T05:06:52.286Z,101040.53
2022-11-25T05:09:20.214Z,101045.09
2022-11-25T05:11:48.270Z,101049.50
2022-11-25T05:14:17.597Z,101043.28
2022-11-25T05:16:45.600Z,101053.97
2022-11-25T05:19:13.571Z,101054.94
2022-11-25T05:21:41.469Z,101057.59
2022-11-25T05:24:09.539Z,101055.88
2022-11-25T05:26:37.464Z,101053.13
2022-11-25T05:29:05.404Z,101050.53
2022-11-25T05:31:34.745Z,101050.63
2022-11-25T05:34:03.132Z,101054.16
2022-11-25T05:36:31.263Z,101054.16
2022-11-25T05:38:59.239Z,101052.41
2022-11-25T05:41:27.458Z,101057.78
2022-11-25T05:43:55.494Z,101056.84
2022-11-25T05:46:23.693Z,101063.13
2022-11-25T05:48:55.943Z,101065.78
2022-11-25T05:51:24.093Z,101069.34
2022-11-25T05:53:52.935Z,101070.22
2022-11-25T05:56:20.883Z,101075.56
2022-11-25T05:58:48.923Z,101073.75
2022-11-25T06:01:18.375Z,101073.81
2022-11-25T06:03:46.328Z,101071.13
2022-11-25T06:06:16.063Z,101081.78
2022-11-25T06:08:44.131Z,101081.84
2022-11-25T06:11:14.952Z,101090.75
2022-11-25T06:13:44.057Z,101087.13
2022-11-25T06:16:14.416Z,101096.97
2022-11-25T06:18:42.882Z,101099.53
2022-11-25T06:21:12.385Z,101102.03
2022-11-25T06:23:42.015Z,101099.38
2022-11-25T06:26:15.837Z,101101.94
2022-11-25T06:28:44.429Z,101104.63
2022-11-25T06:31:15.766Z,101120.59
2022-11-25T06:33:44.122Z,101114.41
2022-11-25T06:36:17.237Z,101112.59
2022-11-25T06:38:47.948Z,101113.44
2022-11-25T06:41:16.762Z,101113.34
2022-11-25T06:43:44.647Z,101111.53
2022-11-25T06:46:17.435Z,101119.56
2022-11-25T06:48:49.284Z,101115.94
2022-11-25T06:51:17.752Z,101118.63
2022-11-25T06:53:47.284Z,101122.22
2022-11-25T06:56:18.019Z,101133.72
2022-11-25T06:58:47.467Z,101133.72
2022-11-25T07:01:17.188Z,101133.56
2022-11-25T07:03:46.933Z,101142.44
2022-11-25T07:06:16.020Z,101142.59
2022-11-25T07:08:46.224Z,101153.19
2022-11-25T07:11:17.758Z,101153.19
2022-11-25T07:13:45.803Z,101158.56
2022-11-25T07:16:14.261Z,101163.91
2022-11-25T07:18:42.970Z,101168.41
2022-11-25T07:21:13.233Z,101167.53
2022-11-25T07:23:42.732Z,101178.22
2022-11-25T07:26:14.536Z,101171.16
2022-11-25T07:28:43.753Z,101173.84
2022-11-25T07:31:28.304Z,101167.53
2022-11-25T07:34:01.119Z,101178.22
2022-11-25T07:36:30.398Z,101188.06
2022-11-25T07:38:59.667Z,101188.06
2022-11-25T07:41:29.870Z,101193.44
2022-11-25T07:43:59.535Z,101193.31
2022-11-25T07:46:29.551Z,101200.44
2022-11-25T07:48:59.503Z,101205.69
2022-11-25T07:51:29.905Z,101208.28
2022-11-25T07:53:59.159Z,101212.75
2022-11-25T07:56:29.052Z,101205.69
2022-11-25T07:58:57.841Z,101209.22
2022-11-25T08:01:26.133Z,101223.44
2022-11-25T08:03:54.782Z,101219.91
2022-11-25T08:06:24.475Z,101230.63
2022-11-25T08:08:55.372Z,101231.44
2022-11-25T08:11:27.962Z,101234.13
2022-11-25T08:13:58.445Z,101237.56
2022-11-25T08:16:28.229Z,101248.25
2022-11-25T08:18:56.993Z,101253.63
2022-11-25T08:21:25.369Z,101251.78
2022-11-25T08:23:53.509Z,101250.94
2022-11-25T08:26:23.694Z,101251.72
2022-11-25T08:28:51.848Z,101257.00
2022-11-25T08:31:23.852Z,101259.66
2022-11-25T08:33:53.349Z,101260.47
2022-11-25T08:36:22.469Z,101263.03
2022-11-25T08:38:52.839Z,101262.94
2022-11-25T08:41:22.613Z,101273.59
2022-11-25T08:43:50.884Z,101272.63
2022-11-25T08:46:22.594Z,101272.53
2022-11-25T08:48:50.909Z,101281.44
2022-11-25T08:51:20.772Z,101283.06
2022-11-25T08:53:51.188Z,101281.25
2022-11-25T08:56:25.531Z,101291.03
2022-11-25T08:58:54.324Z,101287.25
2022-11-25T09:01:24.882Z,101282.81
2022-11-25T09:03:56.180Z,101295.28
2022-11-25T09:06:25.325Z,101289.06
2022-11-25T09:08:56.618Z,101293.47
2022-11-25T09:11:27.768Z,101292.59
2022-11-25T09:13:55.796Z,101299.56
2022-11-25T09:16:26.910Z,101303.31
2022-11-25T09:18:56.253Z,101311.72
2022-11-25T09:21:25.719Z,101304.22
2022-11-25T09:23:56.616Z,101307.59
2022-11-25T09:26:29.769Z,101311.88
2022-11-25T09:28:58.225Z,101317.19
2022-11-25T09:31:27.655Z,101322.44
2022-11-25T09:33:56.981Z,101332.25
2022-11-25T09:36:25.250Z,101331.28
2022-11-25T09:38:53.554Z,101338.38
2022-11-25T09:41:59.388Z,101334.81
2022-11-25T09:45:01.107Z,101339.16
2022-11-25T09:47:47.045Z,101346.16
2022-11-25T09:50:28.203Z,101354.16
2022-11-25T09:53:03.362Z,101354.97
2022-11-25T09:55:39.096Z,101357.66
2022-11-25T09:58:19.899Z,101366.19
2022-11-25T10:00:51.186Z,101376.59
2022-11-25T10:03:30.258Z,101376.19
2022-11-25T10:06:03.546Z,101388.44
2022-11-25T10:08:36.512Z,101384.66
2022-11-25T10:11:16.940Z,101384.34
2022-11-25T10:13:52.685Z,101390.31
2022-11-25T10:16:31.759Z,101381.16
2022-11-25T10:19:06.108Z,101390.06
2022-11-25T10:21:34.070Z,101394.44
2022-11-25T10:24:02.012Z,101400.59
2022-11-25T10:26:38.293Z,101391.72
2022-11-25T10:29:28.129Z,101398.69
2022-11-25T10:32:19.584Z,101402.16
2022-11-25T10:34:53.593Z,101402.94
2022-11-25T10:37:28.241Z,101402.00
2022-11-25T10:39:56.254Z,101410.81
2022-11-25T10:42:25.877Z,101407.22
2022-11-25T10:44:55.094Z,101416.09
2022-11-25T10:47:38.189Z,101410.75
2022-11-25T10:50:26.845Z,101413.41
2022-11-25T10:53:00.322Z,101416.97
2022-11-25T10:55:31.692Z,101421.34
2022-11-25T10:58:00.423Z,101424.03
2022-11-25T11:00:32.386Z,101432.94
2022-11-25T11:03:13.847Z,101435.63
2022-11-25T11:05:48.812Z,101434.66
2022-11-25T11:08:23.305Z,101435.56
2022-11-25T11:11:19.279Z,101429.31
2022-11-25T11:13:51.668Z,101437.28
2022-11-25T11:16:30.599Z,101451.63
2022-11-25T11:18:58.908Z,101449.81
2022-11-25T11:21:33.445Z,101452.47
2022-11-25T11:24:02.435Z,101454.28
2022-11-25T11:26:32.166Z,101463.19
2022-11-25T11:29:11.121Z,101475.63
2022-11-25T11:31:46.238Z,101471.22
2022-11-25T11:34:34.917Z,101469.41
2022-11-25T11:37:18.487Z,101476.50
2022-11-25T11:40:04.019Z,101482.66
2022-11-25T11:42:42.780Z,101484.53
2022-11-25T11:45:25.215Z,101490.69
2022-11-25T11:48:00.231Z,101488.06
2022-11-25T11:50:33.462Z,101495.16
2022-11-25T11:53:11.089Z,101493.38
2022-11-25T11:59:05.696Z,101501.88
2022-11-25T12:01:44.697Z,101505.41
2022-11-25T12:04:21.666Z,101499.97
2022-11-25T12:07:01.725Z,101505.25
2022-11-25T12:09:34.337Z,101504.28
2022-11-25T12:12:06.084Z,101510.53
2022-11-25T12:14:40.788Z,101506.06
2022-11-25T12:17:17.873Z,101513.13
2022-11-25T12:19:53.581Z,101517.63
2022-11-25T12:22:27.186Z,101525.56
2022-11-25T12:25:05.379Z,101525.56
2022-11-25T12:27:38.769Z,101533.53
2022-11-25T12:30:09.402Z,101536.22
2022-11-25T12:32:49.722Z,101539.81
2022-11-25T12:35:29.128Z,101543.34
2022-11-25T12:38:05.046Z,101545.13
2022-11-25T12:40:38.683Z,101537.47
2022-11-25T12:43:26.883Z,101547.00
2022-11-25T12:46:07.378Z,101543.34
2022-11-25T12:48:40.383Z,101546.75
2022-11-25T12:51:17.803Z,101557.41
2022-11-25T12:53:53.115Z,101557.47
2022-11-25T12:56:28.588Z,101567.25
2022-11-25T12:59:21.866Z,101566.28
2022-11-25T13:02:04.401Z,101573.38
2022-11-25T13:08:07.280Z,101584.91
2022-11-25T13:10:55.258Z,101576.91
2022-11-25T13:11:09.247Z,101582.13
2022-11-25T13:13:54.438Z,101584.81
2022-11-25T13:16:24.430Z,101587.63
2022-11-25T13:18:52.983Z,101594.81
2022-11-25T13:21:21.215Z,101593.84
2022-11-25T13:23:53.429Z,101595.59
2022-11-25T13:26:51.420Z,101595.59
2022-11-25T13:29:59.239Z,101600.81
2022-11-25T13:32:37.040Z,101602.59
2022-11-25T13:35:32.795Z,101607.97
2022-11-25T13:38:00.867Z,101609.78
2022-11-25T13:40:38.403Z,101616.94
2022-11-25T13:43:20.799Z,101616.00
2022-11-25T13:45:48.613Z,101624.03
2022-11-25T13:48:21.530Z,101625.00
2022-11-25T13:53:40.015Z,101630.34
2022-11-25T13:56:24.619Z,101630.44
2022-11-25T13:59:21.560Z,101631.22
2022-11-25T14:01:56.076Z,101631.22
2022-11-25T14:04:42.519Z,101639.34
2022-11-25T14:07:23.010Z,101647.38
2022-11-25T14:10:04.439Z,101645.66
2022-11-25T14:13:09.382Z,101648.31
2022-11-25T14:16:06.520Z,101659.03
2022-11-25T14:22:00.072Z,101663.44
2022-11-25T14:24:35.207Z,101666.13
2022-11-25T14:27:04.395Z,101669.75
2022-11-25T14:29:40.129Z,101676.84
2022-11-25T14:32:13.756Z,101675.97
2022-11-25T14:34:44.718Z,101677.78
2022-11-25T14:37:18.707Z,101680.47
2022-11-25T14:39:54.117Z,101680.47
2022-11-25T14:42:26.643Z,101680.47
2022-11-25T14:44:58.345Z,101691.19
2022-11-25T14:47:33.265Z,101691.19
2022-11-25T14:50:36.562Z,101691.34
2022-11-25T14:52:53.246Z,101701.38
2022-11-25T14:55:30.874Z,101711.13
2022-11-25T14:57:59.224Z,101714.53
2022-11-25T15:00:27.330Z,101713.53
2022-11-25T15:02:57.990Z,101716.97
2022-11-25T15:05:27.796Z,101725.81
2022-11-25T15:08:02.959Z,101731.91
2022-11-25T15:10:42.401Z,101737.13
2022-11-25T15:13:24.070Z,101742.16
2022-11-25T15:15:53.659Z,101741.91
2022-11-25T15:18:24.169Z,101739.97
2022-11-25T15:20:58.042Z,101747.88
2022-11-25T15:23:32.006Z,101751.28
2022-11-25T15:26:01.133Z,101759.31
2022-11-25T15:28:35.746Z,101762.00
2022-11-25T15:31:09.352Z,101768.22
2022-11-25T15:33:38.479Z,101765.47
2022-11-25T15:36:07.040Z,101770.66
2022-11-25T15:38:41.139Z,101773.34
2022-11-25T15:41:19.567Z,101773.34
2022-11-25T15:43:49.686Z,101776.97
2022-11-25T15:46:18.381Z,101779.66
2022-11-25T15:48:48.095Z,101787.69
2022-11-25T15:51:29.780Z,101794.88
2022-11-25T15:54:04.210Z,101799.34
2022-11-25T15:56:34.612Z,101801.19
2022-11-25T15:59:02.596Z,101807.44
2022-11-25T16:01:31.371Z,101810.06
2022-11-25T16:04:17.699Z,101818.91
2022-11-25T16:06:54.950Z,101834.09
2022-11-25T16:09:28.691Z,101841.28
2022-11-25T16:12:06.343Z,101843.97
2022-11-25T16:14:36.871Z,101845.88
2022-11-25T16:17:07.216Z,101851.22
2022-11-25T16:19:41.804Z,101847.66
2022-11-25T16:22:15.490Z,101843.25
2022-11-25T16:24:52.351Z,101862.88
2022-11-25T16:27:25.265Z,101864.69
2022-11-25T16:29:55.974Z,101870.91
2022-11-25T16:32:31.566Z,101873.59
2022-11-25T16:35:13.039Z,101864.69
2022-11-25T16:40:30.540Z,101886.97
2022-11-25T16:42:58.476Z,101895.03
2022-11-25T16:45:28.379Z,101892.34
2022-11-25T16:47:58.989Z,101892.34
2022-11-25T16:50:26.937Z,101895.88
2022-11-25T16:52:54.870Z,101914.63
2022-11-25T16:55:23.687Z,101919.94
2022-11-25T16:57:54.343Z,101923.56
2022-11-25T17:00:22.817Z,101932.47
2022-11-25T17:02:50.851Z,101937.84
2022-11-25T17:05:21.532Z,101935.06
2022-11-25T17:07:51.040Z,101938.72
2022-11-25T17:10:20.020Z,101944.94
2022-11-25T17:12:49.278Z,101945.78
2022-11-25T17:15:21.882Z,101948.47
2022-11-25T17:17:50.599Z,101955.56
2022-11-25T17:20:21.563Z,101958.25
2022-11-25T17:22:49.993Z,101958.25
2022-11-25T17:25:18.335Z,101960.94
2022-11-25T17:27:46.471Z,101959.09
2022-11-25T17:30:20.378Z,101970.72
2022-11-25T17:32:49.067Z,101981.44
2022-11-25T17:35:19.762Z,101981.44
2022-11-25T17:37:48.031Z,101992.16
2022-11-25T17:40:16.515Z,101998.41
2022-11-25T17:42:48.470Z,102005.56
2022-11-25T17:45:17.956Z,102006.47
2022-11-25T17:47:47.789Z,102020.75
2022-11-25T17:50:18.554Z,102027.91
2022-11-25T17:52:46.620Z,102027.91
2022-11-25T17:55:17.173Z,102038.66
2022-11-25T17:57:45.185Z,102035.06
2022-11-25T18:00:17.556Z,102037.72
2022-11-25T18:02:47.159Z,102041.28
2022-11-25T18:05:17.264Z,102052.88
2022-11-25T18:07:45.533Z,102056.41
2022-11-25T18:10:17.902Z,102056.41
2022-11-25T18:12:47.455Z,102062.63
2022-11-25T18:15:18.281Z,102067.91
2022-11-25T18:17:48.225Z,102077.75
2022-11-25T18:20:18.476Z,102074.16
2022-11-25T18:22:47.744Z,102083.94
2022-11-25T18:25:16.657Z,102081.25
2022-11-25T18:27:45.536Z,102077.72
2022-11-25T18:30:19.892Z,102081.25
2022-11-25T18:32:49.949Z,102091.13
2022-11-25T18:35:20.726Z,102091.84
2022-11-25T18:37:49.529Z,102096.34
2022-11-25T18:40:17.619Z,102105.25
2022-11-25T18:42:48.944Z,102100.81
2022-11-25T18:45:22.770Z,102108.84
2022-11-25T18:47:52.175Z,102120.47
2022-11-25T18:50:21.616Z,102110.75
2022-11-25T18:52:52.766Z,102109.13
2022-11-25T18:55:23.185Z,102118.91
2022-11-25T18:57:53.140Z,102119.78
2022-11-25T19:00:32.136Z,102119.72
2022-11-25T19:03:02.437Z,102128.50
2022-11-25T19:05:32.058Z,102123.16
2022-11-25T19:08:00.141Z,102131.25
2022-11-25T19:10:33.288Z,102141.97
2022-11-25T19:13:04.429Z,102143.69
2022-11-25T19:15:33.737Z,102141.09
2022-11-25T19:18:06.145Z,102139.22
2022-11-25T19:20:34.419Z,102145.47
2022-11-25T19:23:13.168Z,102149.94
2022-11-25T19:25:44.196Z,102158.78
2022-11-25T19:28:16.313Z,102164.06
2022-11-25T19:30:45.534Z,102174.78
2022-11-25T19:33:24.290Z,102173.91
2022-11-25T19:35:52.328Z,102178.38
2022-11-25T19:38:21.953Z,102179.97
2022-11-25T19:40:50.307Z,102190.69
2022-11-25T19:43:18.180Z,102194.25
2022-11-25T19:45:46.507Z,102198.72
2022-11-25T19:48:18.997Z,102201.41
2022-11-25T19:50:49.868Z,102199.59
2022-11-25T19:53:19.677Z,102212.06
2022-11-25T19:55:48.615Z,102218.28
2022-11-25T19:58:17.008Z,102222.78
2022-11-25T20:00:47.302Z,102223.59
2022-11-25T20:03:22.178Z,102232.50
2022-11-25T20:05:51.947Z,102232.56
2022-11-25T20:08:21.389Z,102238.75
2022-11-25T20:10:49.374Z,102242.19
2022-11-25T20:13:17.320Z,102254.75
2022-11-25T20:15:46.127Z,102253.25
2022-11-25T20:18:18.679Z,102246.28
2022-11-25T20:20:49.689Z,102261.47
2022-11-25T20:23:25.133Z,102255.19
2022-11-25T20:25:53.193Z,102256.03
2022-11-25T20:28:22.687Z,102250.66
2022-11-25T20:30:51.899Z,102258.63
2022-11-25T20:33:24.710Z,102255.03
2022-11-25T20:36:00.493Z,102261.25
2022-11-25T20:38:30.116Z,102263.00
2022-11-25T20:41:00.142Z,102256.69
2022-11-25T20:43:32.833Z,102263.81
2022-11-25T20:46:02.528Z,102275.44
2022-11-25T20:48:32.337Z,102277.25
2022-11-25T20:51:02.054Z,102292.41
2022-11-25T20:53:32.341Z,102290.66
2022-11-25T20:56:00.713Z,102291.53
2022-11-25T20:58:30.244Z,102296.03
2022-11-25T21:00:59.952Z,102300.53
2022-11-25T21:03:28.257Z,102305.44
2022-11-25T21:05:58.200Z,102308.69
2022-11-25T21:08:30.115Z,102303.16
2022-11-25T21:10:59.619Z,102312.59
2022-11-25T21:13:29.055Z,102318.75
2022-11-25T21:15:57.849Z,102321.22
2022-11-25T21:18:26.587Z,102323.78
2022-11-25T21:20:58.142Z,102315.63
2022-11-25T21:23:28.676Z,102323.56
2022-11-25T21:26:00.758Z,102332.28
2022-11-25T21:28:29.055Z,102337.59
2022-11-25T21:30:56.996Z,102327.56
2022-11-25T21:33:24.977Z,102332.03
2022-11-25T21:35:53.031Z,102336.44
2022-11-25T21:38:25.101Z,102335.50
2022-11-25T21:40:55.774Z,102350.59
2022-11-25T21:43:26.656Z,102355.00
2022-11-25T21:46:00.748Z,102356.75
2022-11-25T21:48:29.653Z,102365.63
2022-11-25T21:51:00.067Z,102368.22
2022-11-25T21:53:33.189Z,102370.00
2022-11-25T21:56:04.364Z,102367.22
2022-11-25T21:58:32.578Z,102374.41
2022-11-25T22:01:02.744Z,102377.09
2022-11-25T22:03:32.576Z,102382.34
2022-11-25T22:06:00.476Z,102387.69
2022-11-25T22:08:29.809Z,102391.28
2022-11-25T22:10:57.763Z,102393.97
2022-11-25T22:13:35.290Z,102394.88
2022-11-25T22:16:03.979Z,102401.09
2022-11-25T22:18:35.261Z,102409.16
2022-11-25T22:21:04.043Z,102398.41
2022-11-25T22:23:33.417Z,102410.97
2022-11-25T22:26:01.369Z,102410.06
2022-11-25T22:28:31.088Z,102407.38
2022-11-25T22:31:03.540Z,102400.22
2022-11-25T22:33:33.877Z,102410.06
2022-11-25T22:36:02.683Z,102412.72
2022-11-25T22:38:31.734Z,102419.91
2022-11-25T22:41:04.445Z,102424.41
2022-11-25T22:43:35.800Z,102431.50
2022-11-25T22:46:05.418Z,102427.94
2022-11-25T22:48:35.897Z,102431.59
2022-11-25T22:51:04.147Z,102424.47
2022-11-25T22:53:32.292Z,102428.91
2022-11-25T22:56:01.616Z,102428.91
2022-11-25T22:58:29.738Z,102425.34
2022-11-25T23:00:58.199Z,102433.41
2022-11-25T23:03:30.091Z,102437.03
2022-11-25T23:05:58.230Z,102437.06
2022-11-25T23:08:28.312Z,102437.06
2022-11-25T23:10:57.376Z,102441.56
2022-11-25T23:13:26.738Z,102444.25
2022-11-25T23:15:56.395Z,102451.50
2022-11-25T23:18:27.508Z,102450.53
2022-11-25T23:20:55.611Z,102459.53
2022-11-25T23:23:26.966Z,102454.16
2022-11-25T23:25:55.802Z,102457.75
2022-11-25T23:28:24.516Z,102456.88
2022-11-25T23:30:56.015Z,102464.06
2022-11-25T23:33:31.263Z,102462.13
2022-11-25T23:36:02.523Z,102464.75
2022-11-25T23:38:32.929Z,102471.13
2022-11-25T23:41:00.851Z,102475.66
2022-11-25T23:43:28.789Z,102476.59
2022-11-25T23:45:58.341Z,102489.19
2022-11-25T23:48:31.142Z,102488.31
2022-11-25T23:51:01.325Z,102490.19
2022-11-25T23:53:31.499Z,102485.69
2022-11-25T23:55:59.967Z,102491.09
2022-11-25T23:58:27.915Z,102491.09
